Time;durP1;ratioP1;P1;durP2;ratioP2;P2;SDS_P1;SDS_P2;PMS_P1;PMS_P2;Temp;Humidity;BMP_temperature;BMP_pressure;BME280_temperature;BME280_humidity;BME280_pressure;Samples;Min_cycle;Max_cycle;Signal;HPM_P1;HPM_P2
2023/08/27 00:00:48;;;;;;;4.00;2.50;;;;;;;20.72;87.71;98533.14;105788;1254;75765;-20
2023/08/27 00:03:16;;;;;;;4.90;2.80;;;;;;;21.05;89.03;98529.88;105768;1256;74527;-20
2023/08/27 00:05:44;;;;;;;3.60;2.40;;;;;;;21.32;88.65;98530.88;105714;1254;61541;-20
2023/08/27 00:08:11;;;;;;;7.40;2.50;;;;;;;21.24;88.07;98538.36;105579;1254;63118;-20
2023/08/27 00:10:39;;;;;;;9.30;3.70;;;;;;;20.78;90.22;98543.52;105614;1259;77786;-20
2023/08/27 00:13:07;;;;;;;4.50;2.60;;;;;;;20.70;93.56;98554.63;105640;1254;76803;-20
2023/08/27 00:15:35;;;;;;;8.30;3.60;;;;;;;21.17;93.67;98557.90;105620;1254;74084;-20
2023/08/27 00:18:04;;;;;;;6.60;3.60;;;;;;;21.56;92.13;98555.96;105626;1254;62576;-20
2023/08/27 00:20:33;;;;;;;6.40;4.10;;;;;;;21.53;91.40;98558.45;105816;1257;62462;-20
2023/08/27 00:23:01;;;;;;;5.30;3.00;;;;;;;21.34;92.01;98572.34;105637;1254;76906;-20
2023/08/27 00:25:28;;;;;;;4.70;3.30;;;;;;;21.00;92.73;98584.68;105647;1254;73182;-20
2023/08/27 00:27:56;;;;;;;4.00;2.60;;;;;;;20.79;93.63;98589.64;105547;1257;74990;-20
2023/08/27 00:30:24;;;;;;;4.40;2.50;;;;;;;21.16;93.50;98589.48;105603;1254;62554;-20
2023/08/27 00:32:52;;;;;;;6.80;3.30;;;;;;;21.59;92.13;98587.17;105666;1254;61311;-20
2023/08/27 00:35:20;;;;;;;5.50;2.40;;;;;;;21.61;91.96;98586.07;105665;1255;76341;-20
2023/08/27 00:37:48;;;;;;;4.90;2.90;;;;;;;21.46;92.81;98591.75;105582;1254;75932;-20
2023/08/27 00:40:16;;;;;;;6.70;3.30;;;;;;;21.26;93.57;98587.63;105783;1255;72654;-20
2023/08/27 00:42:44;;;;;;;4.70;3.00;;;;;;;21.15;95.01;98583.91;105875;1254;61786;-20
2023/08/27 00:45:12;;;;;;;8.90;3.60;;;;;;;21.60;94.76;98587.08;105524;1255;61119;-20
2023/08/27 00:47:40;;;;;;;6.60;2.70;;;;;;;22.08;92.21;98585.08;105634;1258;77714;-20
2023/08/27 00:50:09;;;;;;;4.90;2.60;;;;;;;22.12;91.65;98580.53;105800;1256;76787;-20
2023/08/27 00:52:37;;;;;;;4.30;3.00;;;;;;;21.98;92.59;98579.51;105690;1254;71756;-20
2023/08/27 00:55:06;;;;;;;4.80;3.10;;;;;;;21.72;91.44;98574.79;105704;1259;61170;-21
2023/08/27 00:57:36;;;;;;;5.00;2.30;;;;;;;21.48;91.74;98579.64;105897;1260;61448;-20
2023/08/27 01:00:04;;;;;;;7.10;2.70;;;;;;;21.79;90.30;98587.45;105526;1262;75888;-20
2023/08/27 01:02:32;;;;;;;5.20;3.00;;;;;;;22.15;90.08;98600.99;105683;1262;76631;-20
2023/08/27 01:05:01;;;;;;;6.00;3.00;;;;;;;21.99;88.88;98605.14;105643;1254;74548;-20
2023/08/27 01:07:39;;;;;;;6.00;3.50;;;;;;;21.64;89.60;98616.70;105591;1255;61076;-20
2023/08/27 01:10:13;;;;;;;5.80;3.50;;;;;;;21.25;92.27;98622.02;105694;1260;61458;-20
2023/08/27 01:12:56;;;;;;;5.70;2.50;;;;;;;20.99;93.90;98629.84;105590;1259;72650;-20
2023/08/27 01:15:24;;;;;;;5.50;2.90;;;;;;;21.30;92.80;98642.21;105632;1254;76884;-20
2023/08/27 01:17:52;;;;;;;6.20;3.40;;;;;;;21.52;90.12;98660.68;105469;1258;72972;-20
2023/08/27 01:20:20;;;;;;;9.70;3.80;;;;;;;21.32;89.53;98679.89;105484;1259;63915;-20
2023/08/27 01:22:50;;;;;;;7.10;4.00;;;;;;;21.04;90.16;98700.41;105549;1254;61721;-20
2023/08/27 01:25:21;;;;;;;8.70;4.20;;;;;;;20.77;90.67;98706.81;105616;1254;73908;-20
2023/08/27 01:27:54;;;;;;;4.80;3.20;;;;;;;20.64;92.31;98698.19;105220;1260;75820;-21
2023/08/27 01:30:29;;;;;;;5.90;3.60;;;;;;;20.96;90.23;98687.54;105298;1260;71451;-20
2023/08/27 01:33:10;;;;;;;8.00;3.80;;;;;;;21.00;88.98;98676.30;105424;1255;62569;-21
2023/08/27 01:35:38;;;;;;;6.80;3.30;;;;;;;20.86;90.13;98659.02;105342;1262;62750;-20
2023/08/27 01:38:07;;;;;;;5.40;3.20;;;;;;;20.65;92.24;98641.42;105658;1258;72590;-20
2023/08/27 01:40:35;;;;;;;4.60;2.30;;;;;;;20.56;93.92;98623.83;105582;1260;75652;-20
2023/08/27 01:43:03;;;;;;;5.60;2.30;;;;;;;20.96;92.25;98605.89;105677;1254;75162;-20
2023/08/27 01:45:32;;;;;;;4.60;2.90;;;;;;;21.13;87.42;98594.00;105703;1260;62609;-20
2023/08/27 01:48:01;;;;;;;9.40;2.90;;;;;;;21.02;88.00;98576.17;105695;1260;62217;-20
2023/08/27 01:50:28;;;;;;;6.70;3.10;;;;;;;20.73;89.43;98580.27;105711;1254;75318;-20
2023/08/27 01:52:56;;;;;;;4.80;2.90;;;;;;;20.37;91.76;98598.76;105649;1254;75737;-20
2023/08/27 01:55:25;;;;;;;7.10;3.10;;;;;;;20.59;91.46;98596.52;105650;1254;71400;-20
2023/08/27 01:57:52;;;;;;;5.40;2.70;;;;;;;20.82;88.58;98585.13;105660;1257;62276;-23
2023/08/27 02:00:20;;;;;;;8.00;3.20;;;;;;;20.43;90.87;98584.05;105613;1259;61414;-23
2023/08/27 02:02:49;;;;;;;6.40;2.60;;;;;;;20.12;93.46;98587.83;105662;1254;76405;-23
2023/08/27 02:05:17;;;;;;;4.80;2.80;;;;;;;20.34;92.73;98587.08;105501;1260;76625;-23
2023/08/27 02:07:45;;;;;;;7.10;3.00;;;;;;;20.36;92.51;98574.23;105571;1259;76582;-23
2023/08/27 02:10:13;;;;;;;8.10;3.30;;;;;;;20.25;92.89;98562.91;105394;1260;61112;-24
2023/08/27 02:12:41;;;;;;;4.10;2.70;;;;;;;20.22;92.90;98564.68;105611;1259;61147;-23
2023/08/27 02:15:10;;;;;;;3.30;2.00;;;;;;;20.62;94.80;98564.80;105544;1260;75946;-23
2023/08/27 02:17:38;;;;;;;3.90;2.30;;;;;;;20.89;95.10;98564.30;105671;1260;76435;-24
2023/08/27 02:20:08;;;;;;;3.90;2.70;;;;;;;20.75;92.71;98564.04;105655;1259;71426;-23
2023/08/27 02:22:38;;;;;;;6.80;2.40;;;;;;;20.46;92.38;98560.77;105559;1258;61141;-24
2023/08/27 02:25:06;;;;;;;4.50;2.50;;;;;;;20.59;91.70;98555.55;105680;1254;62865;-23
2023/08/27 02:27:34;;;;;;;8.40;2.70;;;;;;;20.84;89.95;98551.71;105715;1260;76310;-23
2023/08/27 02:30:02;;;;;;;5.00;2.80;;;;;;;20.72;89.13;98547.67;105645;1258;74515;-24
2023/08/27 02:32:30;;;;;;;5.20;2.60;;;;;;;20.56;92.21;98550.22;105645;1256;74937;-23
2023/08/27 02:34:58;;;;;;;3.90;2.30;;;;;;;20.84;93.28;98542.91;105486;1254;61143;-23
2023/08/27 02:37:26;;;;;;;3.70;2.70;;;;;;;21.09;93.95;98545.10;105393;1258;61443;-24
2023/08/27 02:39:54;;;;;;;5.10;2.60;;;;;;;20.98;92.09;98542.84;105660;1257;78203;-23
2023/08/27 02:42:22;;;;;;;5.60;2.50;;;;;;;20.59;91.24;98541.23;105685;1261;74436;-23
2023/08/27 02:44:50;;;;;;;5.10;2.50;;;;;;;20.34;92.32;98551.68;105803;1257;76506;-23
2023/08/27 02:47:18;;;;;;;6.80;2.70;;;;;;;20.73;91.82;98554.91;105738;1254;61256;-23
2023/08/27 02:49:47;;;;;;;2.60;2.10;;;;;;;21.11;88.72;98548.40;105906;1265;62491;-24
2023/08/27 02:52:16;;;;;;;6.80;2.80;;;;;;;21.07;86.51;98551.17;105703;1259;73830;-23
2023/08/27 02:54:44;;;;;;;4.60;2.40;;;;;;;20.86;86.31;98556.22;105717;1260;75844;-23
2023/08/27 02:57:12;;;;;;;3.20;2.30;;;;;;;20.57;87.12;98558.56;105778;1260;75102;-23
2023/08/27 02:59:40;;;;;;;4.10;2.30;;;;;;;20.89;86.87;98558.91;105594;1260;62595;-23
2023/08/27 03:02:08;;;;;;;6.00;2.40;;;;;;;21.20;85.22;98557.19;105625;1254;62825;-24
2023/08/27 03:04:36;;;;;;;4.50;2.70;;;;;;;21.16;84.69;98556.98;105729;1260;76530;-24
2023/08/27 03:07:04;;;;;;;4.10;2.30;;;;;;;20.95;84.87;98553.88;105647;1258;76755;-24
2023/08/27 03:09:32;;;;;;;5.90;2.60;;;;;;;20.69;85.39;98554.38;105654;1264;75174;-23
2023/08/27 03:12:00;;;;;;;5.90;2.10;;;;;;;20.45;86.88;98555.86;105719;1257;61119;-23
2023/08/27 03:14:28;;;;;;;5.80;2.30;;;;;;;20.79;86.60;98555.77;105699;1257;61153;-24
2023/08/27 03:16:56;;;;;;;3.90;2.50;;;;;;;21.16;84.65;98548.88;105777;1257;73908;-24
2023/08/27 03:19:24;;;;;;;5.60;2.80;;;;;;;21.12;84.09;98551.74;105436;1259;74750;-24
2023/08/27 03:21:52;;;;;;;8.30;3.30;;;;;;;20.79;85.69;98551.47;105570;1258;73817;-23
2023/08/27 03:24:19;;;;;;;6.00;3.00;;;;;;;20.51;87.18;98548.42;105646;1259;62524;-24
2023/08/27 03:26:49;;;;;;;4.40;2.40;;;;;;;20.30;88.76;98548.39;105514;1260;63849;-24
2023/08/27 03:29:17;;;;;;;8.30;2.70;;;;;;;20.54;88.77;98550.05;105554;1260;73829;-24
2023/08/27 03:31:45;;;;;;;6.10;2.70;;;;;;;20.79;87.31;98546.70;105725;1259;74503;-24
2023/08/27 03:34:14;;;;;;;9.80;3.50;;;;;;;20.75;86.66;98543.41;105732;1254;71480;-24
2023/08/27 03:36:42;;;;;;;5.20;3.10;;;;;;;20.50;87.64;98542.55;105683;1267;61209;-23
2023/08/27 03:39:10;;;;;;;5.40;2.60;;;;;;;20.32;88.92;98543.69;105699;1258;61195;-24
2023/08/27 03:41:38;;;;;;;5.60;2.70;;;;;;;20.59;88.16;98543.74;105676;1264;72657;-23
2023/08/27 03:44:06;;;;;;;5.20;3.20;;;;;;;20.78;86.69;98542.19;105833;1257;77313;-24
2023/08/27 03:46:36;;;;;;;7.60;3.30;;;;;;;20.70;86.72;98549.91;105645;1260;71764;-23
2023/08/27 03:49:06;;;;;;;5.60;3.00;;;;;;;20.51;87.48;98551.80;105639;1259;64067;-23
2023/08/27 03:51:34;;;;;;;3.00;1.90;;;;;;;20.46;88.07;98550.13;105725;1260;63692;-23
2023/08/27 03:54:02;;;;;;;4.70;3.10;;;;;;;20.69;86.41;98552.11;105758;1254;73905;-23
2023/08/27 03:56:31;;;;;;;5.40;3.20;;;;;;;20.91;84.98;98552.20;105647;1259;74401;-23
2023/08/27 03:58:58;;;;;;;8.90;3.50;;;;;;;20.96;84.84;98548.05;105669;1256;75219;-23
2023/08/27 04:01:26;;;;;;;7.80;3.70;;;;;;;20.71;85.65;98544.58;105534;1268;61767;-23
2023/08/27 04:03:54;;;;;;;3.60;2.80;;;;;;;20.58;86.76;98539.55;105511;1259;64300;-23
2023/08/27 04:06:23;;;;;;;6.30;3.30;;;;;;;20.82;85.57;98534.69;105636;1258;78091;-23
2023/08/27 04:08:51;;;;;;;8.60;3.30;;;;;;;20.92;84.78;98535.83;105669;1260;78373;-23
2023/08/27 04:11:19;;;;;;;4.60;3.10;;;;;;;20.73;85.67;98529.52;105708;1260;76678;-22
2023/08/27 04:13:47;;;;;;;4.40;2.70;;;;;;;20.48;85.98;98533.53;105673;1259;61718;-22
2023/08/27 04:16:15;;;;;;;6.90;3.00;;;;;;;20.54;86.52;98533.77;105674;1258;62474;-22
2023/08/27 04:18:43;;;;;;;3.30;2.60;;;;;;;20.90;85.08;98527.48;105856;1259;76271;-22
2023/08/27 04:21:11;;;;;;;9.80;2.90;;;;;;;20.90;84.10;98527.28;105742;1254;74416;-22
2023/08/27 04:23:39;;;;;;;7.00;2.90;;;;;;;20.79;84.59;98523.63;105852;1260;72708;-22
2023/08/27 04:26:07;;;;;;;4.70;2.60;;;;;;;20.68;85.32;98524.70;105704;1255;64444;-22
2023/08/27 04:28:35;;;;;;;6.70;3.10;;;;;;;21.12;84.68;98519.61;105494;1257;63775;-21
2023/08/27 04:31:03;;;;;;;5.30;2.10;;;;;;;21.42;82.70;98520.02;105382;1254;76282;-21
2023/08/27 04:33:31;;;;;;;6.40;3.60;;;;;;;21.35;82.41;98513.37;105615;1260;73478;-21
2023/08/27 04:35:58;;;;;;;2.40;2.20;;;;;;;21.25;82.59;98507.15;105608;1254;72741;-21
2023/08/27 04:38:26;;;;;;;8.50;3.10;;;;;;;21.15;82.56;98508.11;105565;1270;64173;-21
2023/08/27 04:40:54;;;;;;;7.10;2.90;;;;;;;21.60;81.79;98512.55;105874;1254;62703;-21
2023/08/27 04:43:22;;;;;;;5.50;3.10;;;;;;;21.87;80.17;98502.09;105694;1257;78141;-21
2023/08/27 04:45:50;;;;;;;5.20;2.40;;;;;;;21.88;79.81;98499.71;105478;1260;76810;-21
2023/08/27 04:48:19;;;;;;;4.70;2.90;;;;;;;21.68;80.46;98497.81;105606;1254;75210;-22
2023/08/27 04:50:47;;;;;;;5.70;2.40;;;;;;;21.65;81.15;98501.45;105702;1259;64134;-22
2023/08/27 04:53:15;;;;;;;5.90;2.60;;;;;;;22.13;79.80;98500.02;105655;1253;61044;-22
2023/08/27 04:55:43;;;;;;;3.20;2.80;;;;;;;22.39;77.82;98502.18;105638;1254;76564;-22
2023/08/27 04:58:13;;;;;;;6.40;2.40;;;;;;;22.45;78.00;98506.06;105618;1260;75952;-22
2023/08/27 05:00:42;;;;;;;6.20;2.40;;;;;;;22.57;78.36;98505.77;105658;1254;74370;-22
2023/08/27 05:03:10;;;;;;;5.70;2.80;;;;;;;22.53;78.43;98505.02;105694;1259;61484;-22
2023/08/27 05:05:42;;;;;;;5.60;2.20;;;;;;;22.55;79.02;98503.79;105663;1261;63727;-22
2023/08/27 05:08:11;;;;;;;3.50;2.10;;;;;;;23.26;78.47;98504.83;105402;1254;73892;-22
2023/08/27 05:10:39;;;;;;;3.20;2.40;;;;;;;23.94;74.86;98503.09;105481;1261;76584;-22
2023/08/27 05:13:07;;;;;;;2.60;1.70;;;;;;;24.12;73.95;98508.14;105527;1261;74869;-22
2023/08/27 05:15:35;;;;;;;5.00;2.70;;;;;;;24.07;73.56;98507.27;105769;1254;61116;-23
2023/08/27 05:18:03;;;;;;;3.80;2.50;;;;;;;24.03;74.29;98507.65;105686;1260;62512;-22
2023/08/27 05:20:31;;;;;;;4.40;2.70;;;;;;;24.03;74.06;98510.42;105706;1260;76824;-22
2023/08/27 05:22:59;;;;;;;4.30;2.80;;;;;;;24.05;74.26;98512.65;105616;1254;76836;-22
2023/08/27 05:25:28;;;;;;;3.90;2.00;;;;;;;23.88;73.35;98513.99;105514;1259;76190;-22
2023/08/27 05:27:55;;;;;;;2.90;1.90;;;;;;;24.26;73.39;98509.92;105441;1260;61038;-22
2023/08/27 05:30:24;;;;;;;4.00;2.20;;;;;;;24.57;71.75;98510.56;105746;1254;61332;-22
2023/08/27 05:32:53;;;;;;;4.70;2.20;;;;;;;24.61;71.79;98509.33;105689;1254;76304;-22
2023/08/27 05:35:22;;;;;;;3.70;2.50;;;;;;;24.47;71.29;98511.05;105889;1255;75069;-22
2023/08/27 05:37:50;;;;;;;4.00;2.40;;;;;;;24.29;72.54;98510.95;105673;1256;74945;-22
2023/08/27 05:40:18;;;;;;;3.80;2.60;;;;;;;24.35;73.20;98512.13;105720;1257;61074;-22
2023/08/27 05:42:46;;;;;;;3.20;1.80;;;;;;;24.38;72.96;98510.90;105689;1257;62926;-22
2023/08/27 05:45:14;;;;;;;7.30;2.10;;;;;;;24.74;71.06;98507.39;105605;1267;76312;-23
2023/08/27 05:47:42;;;;;;;3.80;2.40;;;;;;;25.03;70.04;98508.29;105663;1258;76422;-23
2023/08/27 05:50:10;;;;;;;5.60;2.60;;;;;;;25.07;70.38;98515.39;105657;1258;74947;-23
2023/08/27 05:52:38;;;;;;;5.20;3.10;;;;;;;24.75;71.69;98516.20;105655;1254;61038;-22
2023/08/27 05:55:07;;;;;;;5.60;2.90;;;;;;;24.73;72.54;98514.85;105689;1254;61808;-23
2023/08/27 05:57:36;;;;;;;4.40;2.50;;;;;;;24.55;73.46;98512.76;105687;1260;76367;-23
2023/08/27 06:00:05;;;;;;;4.90;2.10;;;;;;;24.58;74.08;98514.80;105629;1254;75774;-22
2023/08/27 06:02:39;;;;;;;2.70;2.10;;;;;;;25.27;72.20;98510.79;105611;1254;73732;-22
2023/08/27 06:05:07;;;;;;;4.10;2.90;;;;;;;25.64;69.18;98510.98;105742;1260;61109;-22
2023/08/27 06:07:37;;;;;;;6.70;2.80;;;;;;;25.72;68.54;98508.52;105637;1254;61795;-22
2023/08/27 06:10:05;;;;;;;4.60;2.80;;;;;;;25.68;69.58;98517.44;105767;1254;76272;-22
2023/08/27 06:12:33;;;;;;;3.50;2.40;;;;;;;25.60;69.03;98510.79;105577;1254;76777;-22
2023/08/27 06:15:01;;;;;;;6.90;2.60;;;;;;;25.51;69.40;98514.57;105505;1254;72706;-22
2023/08/27 06:17:29;;;;;;;5.10;2.70;;;;;;;25.41;69.36;98510.11;105656;1254;61122;-22
2023/08/27 06:19:57;;;;;;;3.00;2.80;;;;;;;25.30;70.28;98510.23;105520;1254;61834;-22
2023/08/27 06:22:25;;;;;;;4.60;2.40;;;;;;;25.27;70.31;98510.27;105433;1254;76023;-22
2023/08/27 06:24:56;;;;;;;4.70;2.30;;;;;;;25.80;69.39;98512.45;105806;1254;75891;-22
2023/08/27 06:27:24;;;;;;;3.80;2.40;;;;;;;26.20;68.14;98508.65;105768;1257;72693;-22
2023/08/27 06:29:52;;;;;;;3.70;2.40;;;;;;;26.16;68.36;98510.81;105576;1252;61528;-22
2023/08/27 06:32:19;;;;;;;3.50;3.00;;;;;;;25.92;68.25;98512.08;105682;1254;61397;-21
2023/08/27 06:34:48;;;;;;;3.80;2.70;;;;;;;25.63;68.58;98510.35;105715;1257;75247;-22
2023/08/27 06:37:16;;;;;;;3.30;3.00;;;;;;;25.27;68.97;98511.44;105691;1254;75801;-21
2023/08/27 06:39:43;;;;;;;5.50;3.00;;;;;;;25.26;69.73;98510.89;105523;1254;75468;-22
2023/08/27 06:42:12;;;;;;;4.80;2.90;;;;;;;25.28;70.38;98514.12;105677;1257;61850;-22
2023/08/27 06:44:40;;;;;;;3.20;2.30;;;;;;;25.35;70.70;98515.23;105872;1254;61453;-22
2023/08/27 06:47:08;;;;;;;3.10;2.10;;;;;;;25.92;69.11;98510.95;105743;1254;73874;-23
2023/08/27 06:49:36;;;;;;;4.60;2.90;;;;;;;26.40;67.20;98508.60;105689;1254;77174;-22
2023/08/27 06:52:06;;;;;;;4.10;3.00;;;;;;;26.54;65.11;98515.08;105676;1254;72745;-22
2023/08/27 06:54:34;;;;;;;4.00;2.60;;;;;;;26.61;64.12;98520.08;105550;1254;62827;-22
2023/08/27 06:57:02;;;;;;;6.90;2.50;;;;;;;26.48;63.26;98523.67;105618;1254;62474;-22
2023/08/27 06:59:30;;;;;;;7.40;3.30;;;;;;;26.29;62.98;98521.55;105772;1254;76745;-22
2023/08/27 07:01:59;;;;;;;5.10;3.10;;;;;;;26.22;63.24;98523.79;105695;1254;78327;-22
2023/08/27 07:04:27;;;;;;;6.50;2.60;;;;;;;26.30;62.94;98529.64;105644;1257;76818;-22
2023/08/27 07:06:56;;;;;;;7.70;2.70;;;;;;;26.41;63.46;98533.52;105779;1257;62782;-22
2023/08/27 07:09:25;;;;;;;5.30;2.80;;;;;;;26.46;62.95;98536.42;105846;1254;62283;-22
2023/08/27 07:11:54;;;;;;;5.90;2.80;;;;;;;26.41;62.54;98533.76;105715;1257;76607;-22
2023/08/27 07:14:22;;;;;;;5.00;3.30;;;;;;;26.52;62.93;98536.55;105690;1254;75824;-22
2023/08/27 07:16:49;;;;;;;9.00;3.00;;;;;;;26.60;60.25;98536.30;105680;1257;74196;-22
2023/08/27 07:19:17;;;;;;;5.20;3.20;;;;;;;26.64;61.03;98537.22;105652;1256;61250;-22
2023/08/27 07:21:45;;;;;;;4.70;2.60;;;;;;;26.75;60.41;98537.08;103486;1254;2854275;-22
2023/08/27 07:24:13;;;;;;;5.80;3.10;;;;;;;26.86;59.69;98541.16;105633;1256;75238;-22
2023/08/27 07:26:41;;;;;;;6.50;3.40;;;;;;;26.82;59.31;98540.07;105689;1259;78586;-22
2023/08/27 07:29:09;;;;;;;7.50;3.20;;;;;;;26.78;59.15;98538.62;105679;1259;75434;-23
2023/08/27 07:31:37;;;;;;;5.40;2.80;;;;;;;26.78;59.38;98539.42;105682;1260;61387;-22
2023/08/27 07:34:05;;;;;;;6.40;2.90;;;;;;;26.61;59.31;98536.59;105865;1257;62609;-22
2023/08/27 07:36:33;;;;;;;5.20;3.20;;;;;;;26.62;60.76;98539.65;105554;1259;76577;-22
2023/08/27 07:39:01;;;;;;;5.80;3.70;;;;;;;26.75;60.67;98540.38;105856;1257;77088;-22
2023/08/27 07:41:29;;;;;;;4.70;2.90;;;;;;;26.96;61.25;98538.35;105375;1257;72830;-23
2023/08/27 07:43:57;;;;;;;6.20;2.90;;;;;;;27.22;60.78;98538.13;105407;1254;61390;-23
2023/08/27 07:46:25;;;;;;;5.10;2.70;;;;;;;27.38;59.71;98538.83;105476;1252;61246;-22
2023/08/27 07:48:53;;;;;;;6.00;3.20;;;;;;;27.45;59.32;98534.63;105445;1254;73001;-23
2023/08/27 07:51:21;;;;;;;3.50;2.50;;;;;;;27.52;59.28;98533.83;105562;1253;74457;-23
2023/08/27 07:53:49;;;;;;;3.40;3.10;;;;;;;27.59;59.48;98533.48;105624;1254;74188;-24
2023/08/27 07:56:17;;;;;;;3.30;2.80;;;;;;;27.62;59.36;98537.41;105726;1257;63964;-23
2023/08/27 07:58:45;;;;;;;5.20;2.70;;;;;;;27.66;59.06;98538.05;105809;1257;61633;-23
2023/08/27 08:01:13;;;;;;;4.30;3.10;;;;;;;27.66;58.61;98534.10;105714;1258;76569;-23
2023/08/27 08:03:41;;;;;;;5.20;2.50;;;;;;;27.72;59.63;98535.60;105850;1254;75710;-23
2023/08/27 08:06:09;;;;;;;6.50;2.70;;;;;;;27.79;58.85;98531.15;105802;1254;72747;-23
2023/08/27 08:08:37;;;;;;;3.30;2.30;;;;;;;27.93;57.61;98529.78;105789;1253;61009;-23
2023/08/27 08:11:05;;;;;;;4.70;2.20;;;;;;;28.14;58.23;98527.92;105480;1253;61532;-23
2023/08/27 08:13:34;;;;;;;4.10;2.70;;;;;;;28.38;54.22;98528.34;105606;1259;74243;-23
2023/08/27 08:16:02;;;;;;;4.30;2.40;;;;;;;28.58;53.90;98527.70;105683;1254;75782;-23
2023/08/27 08:18:30;;;;;;;3.70;2.20;;;;;;;28.72;50.58;98523.05;105827;1255;74112;-23
2023/08/27 08:20:59;;;;;;;4.60;2.10;;;;;;;29.00;50.72;98522.59;105828;1257;62235;-23
2023/08/27 08:23:28;;;;;;;3.60;2.10;;;;;;;29.24;50.62;98526.84;105689;1257;62156;-23
2023/08/27 08:25:58;;;;;;;7.10;4.70;;;;;;;29.34;51.81;98535.09;105527;1259;76346;-23
2023/08/27 08:28:26;;;;;;;5.50;3.10;;;;;;;28.98;54.18;98532.90;105696;1254;75790;-23
2023/08/27 08:30:54;;;;;;;4.00;2.80;;;;;;;28.55;55.31;98538.75;105734;1254;74136;-23
2023/08/27 08:33:22;;;;;;;3.80;2.40;;;;;;;28.32;55.71;98546.23;105591;1257;61154;-23
2023/08/27 08:35:50;;;;;;;6.30;2.60;;;;;;;28.31;56.26;98550.17;105494;1254;62103;-23
2023/08/27 08:38:18;;;;;;;5.70;2.50;;;;;;;28.35;56.18;98558.25;105740;1260;75239;-23
2023/08/27 08:40:48;;;;;;;4.50;2.40;;;;;;;28.33;56.78;98563.48;105801;1254;76721;-23
2023/08/27 08:43:39;;;;;;;4.00;2.70;;;;;;;28.20;56.48;98559.41;105724;1257;72709;-23
2023/08/27 08:46:08;;;;;;;2.90;2.50;;;;;;;28.03;56.64;98555.36;105670;1254;61299;-23
2023/08/27 08:48:41;;;;;;;3.50;2.60;;;;;;;28.04;57.12;98553.44;105652;1260;61211;-23
2023/08/27 08:51:10;;;;;;;6.10;2.70;;;;;;;28.27;56.21;98560.42;105659;1260;76571;-23
2023/08/27 08:53:47;;;;;;;3.70;2.40;;;;;;;28.30;57.09;98556.76;105592;1260;76595;-23
2023/08/27 08:56:24;;;;;;;3.40;2.70;;;;;;;28.35;58.17;98558.02;105526;1254;75464;-23
2023/08/27 08:58:54;;;;;;;3.50;2.40;;;;;;;28.32;58.55;98560.73;105284;1260;63299;-23
2023/08/27 09:01:22;;;;;;;6.00;2.90;;;;;;;28.29;58.07;98561.73;105445;1260;61105;-23
2023/08/27 09:03:51;;;;;;;3.80;2.50;;;;;;;28.25;57.30;98562.80;105547;1254;75021;-22
2023/08/27 09:06:19;;;;;;;2.50;2.30;;;;;;;28.34;57.09;98557.86;105660;1254;76892;-23
2023/08/27 09:08:47;;;;;;;6.10;3.40;;;;;;;28.45;57.24;98559.67;105725;1254;74113;-23
2023/08/27 09:11:16;;;;;;;7.20;2.60;;;;;;;28.49;57.42;98552.90;105626;1257;61109;-23
2023/08/27 09:13:44;;;;;;;5.40;2.60;;;;;;;28.36;57.93;98556.12;105666;1254;61201;-23
2023/08/27 09:16:12;;;;;;;3.40;2.40;;;;;;;28.36;56.85;98559.28;105469;1254;72928;-23
2023/08/27 09:19:39;;;;;;;2.70;2.20;;;;;;;28.49;56.57;98566.03;102584;1292;600593;-22
2023/08/27 09:22:07;;;;;;;4.60;2.70;;;;;;;28.58;56.13;98564.35;104779;1271;61273;-22
2023/08/27 09:24:36;;;;;;;8.80;2.50;;;;;;;28.78;54.48;98565.67;104779;1266;61412;-23
2023/08/27 09:27:04;;;;;;;3.50;2.20;;;;;;;28.92;53.98;98572.31;104715;1267;74482;-24
2023/08/27 09:29:34;;;;;;;5.60;2.70;;;;;;;28.99;54.95;98570.49;104764;1266;77318;-24
2023/08/27 09:32:03;;;;;;;4.30;2.60;;;;;;;29.28;52.59;98566.92;104799;1267;72738;-23
2023/08/27 09:34:38;;;;;;;4.50;2.70;;;;;;;29.50;51.76;98569.52;102666;1272;61297;-23
2023/08/27 09:37:06;;;;;;;3.60;2.50;;;;;;;29.50;50.18;98565.31;104756;1270;61141;-23
2023/08/27 09:39:34;;;;;;;5.10;2.80;;;;;;;29.79;51.33;98561.52;104875;1266;74688;-23
2023/08/27 09:42:02;;;;;;;4.70;2.60;;;;;;;30.00;50.24;98561.10;104950;1266;74948;-23
2023/08/27 09:44:31;;;;;;;2.80;2.50;;;;;;;29.43;49.85;98562.85;104999;1264;75186;-23
2023/08/27 09:47:03;;;;;;;6.10;2.20;;;;;;;30.10;49.35;98555.73;105111;1267;61504;-23
2023/08/27 09:49:31;;;;;;;4.00;2.40;;;;;;;30.56;47.35;98549.67;104816;1266;61177;-23
2023/08/27 09:51:59;;;;;;;3.40;2.00;;;;;;;30.92;45.93;98544.86;104916;1267;64672;-23
2023/08/27 09:54:31;;;;;;;6.30;2.50;;;;;;;31.25;44.93;98542.86;105053;1266;67207;-23
2023/08/27 09:57:01;;;;;;;2.60;2.20;;;;;;;31.47;43.33;98536.49;104862;1267;66314;-23
2023/08/27 09:59:30;;;;;;;3.30;2.00;;;;;;;31.56;42.68;98531.23;104682;1272;61116;-23
2023/08/27 10:01:58;;;;;;;3.90;1.90;;;;;;;31.86;42.31;98527.11;104989;1266;61145;-23
2023/08/27 10:04:26;;;;;;;4.10;2.40;;;;;;;32.13;41.65;98529.05;104858;1269;65881;-23
2023/08/27 10:06:54;;;;;;;2.00;1.70;;;;;;;31.75;41.38;98527.16;105073;1267;67828;-23
2023/08/27 10:09:22;;;;;;;3.80;2.00;;;;;;;32.27;41.26;98522.16;105076;1266;66258;-23
2023/08/27 10:11:50;;;;;;;3.70;1.90;;;;;;;32.72;39.83;98514.45;105128;1269;61196;-23
2023/08/27 10:14:18;;;;;;;3.80;2.10;;;;;;;32.83;38.64;98513.01;104881;1266;61071;-23
2023/08/27 10:16:46;;;;;;;5.20;1.90;;;;;;;33.08;40.09;98515.48;104966;1269;64180;-23
2023/08/27 10:19:14;;;;;;;3.50;1.70;;;;;;;33.14;38.69;98511.66;105174;1267;66907;-23
2023/08/27 10:21:42;;;;;;;1.80;1.50;;;;;;;33.16;38.86;98512.77;104829;1272;64499;-24
2023/08/27 10:24:11;;;;;;;2.60;1.70;;;;;;;33.05;39.04;98514.35;104961;1267;61266;-23
2023/08/27 10:26:40;;;;;;;2.90;1.80;;;;;;;32.93;39.38;98514.04;104795;1272;61191;-23
2023/08/27 10:29:08;;;;;;;3.00;1.80;;;;;;;32.80;39.64;98512.50;104854;1272;65639;-23
2023/08/27 10:31:36;;;;;;;2.20;1.50;;;;;;;32.21;39.61;98519.39;105192;1266;65676;-23
2023/08/27 10:34:04;;;;;;;2.70;1.90;;;;;;;31.80;40.44;98516.76;104819;1269;63835;-22
2023/08/27 10:36:35;;;;;;;3.60;2.00;;;;;;;31.53;40.60;98517.69;104829;1267;61122;-23
2023/08/27 10:39:03;;;;;;;4.70;2.00;;;;;;;31.31;40.58;98514.95;104853;1267;61065;-23
2023/08/27 10:41:35;;;;;;;2.40;1.70;;;;;;;31.15;41.16;98509.48;104863;1271;62933;-23
2023/08/27 10:44:03;;;;;;;3.70;1.70;;;;;;;30.97;41.49;98509.64;104824;1272;64436;-22
2023/08/27 10:46:31;;;;;;;5.50;2.10;;;;;;;30.80;41.94;98505.29;104760;1270;66058;-22
2023/08/27 10:48:59;;;;;;;2.40;1.60;;;;;;;30.65;42.70;98502.02;104826;1270;61217;-23
2023/08/27 10:51:30;;;;;;;2.50;1.60;;;;;;;30.39;43.42;98502.02;105068;1267;61057;-23
2023/08/27 10:53:59;;;;;;;4.50;1.70;;;;;;;30.21;44.02;98499.73;104771;1272;67008;-23
2023/08/27 10:56:38;;;;;;;7.10;2.10;;;;;;;30.07;44.39;98494.35;104808;1272;69164;-23
2023/08/27 10:59:26;;;;;;;4.30;2.50;;;;;;;29.96;44.96;98493.20;104659;1271;74532;-23
2023/08/27 11:01:54;;;;;;;3.20;1.80;;;;;;;29.81;45.24;98496.00;104992;1266;61170;-23
2023/08/27 11:04:22;;;;;;;2.70;1.90;;;;;;;29.64;45.95;98499.87;104821;1266;61100;-23
2023/08/27 11:06:50;;;;;;;3.90;1.80;;;;;;;29.49;46.33;98499.25;104891;1267;73666;-23
2023/08/27 11:09:25;;;;;;;4.40;1.70;;;;;;;29.47;46.09;98498.13;104807;1272;77529;-23
2023/08/27 11:11:55;;;;;;;5.30;2.00;;;;;;;29.51;46.04;98494.43;104775;1267;75206;-23
2023/08/27 11:14:23;;;;;;;4.40;2.00;;;;;;;29.49;45.45;98493.83;104525;1272;62838;-23
2023/08/27 11:16:58;;;;;;;2.20;1.80;;;;;;;29.47;45.93;98488.30;104984;1266;61411;-23
2023/08/27 11:19:29;;;;;;;2.50;1.40;;;;;;;29.60;45.87;98481.89;104767;1273;75761;-23
2023/08/27 11:22:05;;;;;;;3.80;1.60;;;;;;;29.61;44.89;98477.39;104809;1272;76741;-23
2023/08/27 11:24:33;;;;;;;4.00;1.70;;;;;;;29.60;45.43;98475.30;104834;1272;75068;-23
2023/08/27 11:27:03;;;;;;;1.50;1.40;;;;;;;29.73;44.69;98478.01;105049;1267;61497;-23
2023/08/27 11:29:31;;;;;;;3.00;1.70;;;;;;;29.99;44.77;98480.77;105097;1269;61190;-23
2023/08/27 11:32:02;;;;;;;3.40;1.70;;;;;;;30.07;44.43;98479.27;105097;1269;64199;-23